Terminal Aerodrome Forecast
Issued by NWS

Home | Current Version | Previous Version | Text Only | Print | Product List | Glossary On
Versions: 1 2 3 4 5 6 7 8 9 10 11 12 13 14 15 16 17
000
FTUS45 KRIW 291100
TAFJAC
TAF
KJAC 291139Z 2912/3012 36006KT P6SM SCT012 OVC020
     FM291800 VRB05KT P6SM SCT025 SCT200
      TEMPO 2918/2920 FEW015 BKN030
     FM292100 20006KT P6SM SKC
     FM300300 01005KT P6SM FEW090 SCT200
      AMD LTD TO CLD VIS AND WIND=

USA.gov is the U.S. government's official web portal to all federal, state and local government web resources and services.